Summerfield, Oklahoma
Current Conditions -  °F | °C
As of 6:55 AM on Saturday 01 Nov 2014 (Local Time) from KRKR Reporting Station
Clear Clear  
Wind Chill: 29°   Ceiling: Unl
Heat Index: 29°   Visibility: 10mi
Dew Point: 26°   Wind: 0mph
Humidity: 88%   Direction: NA
Pressure: 30.46"   Gusts: NA
Location:  34.9236°N, 94.8628°W
Report Text: KRKR 011155Z AUTO 00000KT 10SM CLR M01/M03 A3046 RMK AO2 T10151032 10030 21015
Loading
Personal Weather Stations






























Interactive Weather Map
Tropical Storm Tracking
New forecast layout! Learn more

10-Day Weather Forecast

Advertisements
Track Severe Weather on mobile